sensor_id;sensor_type;location;lat;lon;timestamp;P1;durP1;ratioP1;P2;durP2;ratioP2
48018;SDS011;33786;48.690;9.562;2023-12-28T00:02:11;13.93;;;7.90;;
48018;SDS011;33786;48.690;9.562;2023-12-28T00:04:40;16.58;;;7.13;;
48018;SDS011;33786;48.690;9.562;2023-12-28T00:07:09;9.45;;;6.55;;
48018;SDS011;33786;48.690;9.562;2023-12-28T00:09:36;13.73;;;8.02;;
48018;SDS011;33786;48.690;9.562;2023-12-28T00:12:03;12.27;;;7.72;;
48018;SDS011;33786;48.690;9.562;2023-12-28T00:14:31;10.00;;;6.53;;
48018;SDS011;33786;48.690;9.562;2023-12-28T00:16:58;10.52;;;7.03;;
48018;SDS011;33786;48.690;9.562;2023-12-28T00:19:25;11.27;;;8.00;;
48018;SDS011;33786;48.690;9.562;2023-12-28T00:21:51;13.98;;;8.95;;
48018;SDS011;33786;48.690;9.562;2023-12-28T00:24:20;13.85;;;8.32;;
48018;SDS011;33786;48.690;9.562;2023-12-28T00:26:48;16.75;;;8.98;;
48018;SDS011;33786;48.690;9.562;2023-12-28T00:29:15;13.60;;;8.52;;
48018;SDS011;33786;48.690;9.562;2023-12-28T00:31:41;15.23;;;10.48;;
48018;SDS011;33786;48.690;9.562;2023-12-28T00:34:08;15.00;;;8.95;;
48018;SDS011;33786;48.690;9.562;2023-12-28T00:36:36;17.10;;;10.95;;
48018;SDS011;33786;48.690;9.562;2023-12-28T00:39:02;15.32;;;9.32;;
48018;SDS011;33786;48.690;9.562;2023-12-28T00:41:29;12.05;;;8.63;;
48018;SDS011;33786;48.690;9.562;2023-12-28T00:43:56;10.27;;;7.13;;
48018;SDS011;33786;48.690;9.562;2023-12-28T00:46:23;12.05;;;7.97;;
48018;SDS011;33786;48.690;9.562;2023-12-28T00:48:50;12.88;;;7.68;;
48018;SDS011;33786;48.690;9.562;2023-12-28T00:51:17;12.05;;;7.07;;
48018;SDS011;33786;48.690;9.562;2023-12-28T00:53:44;14.77;;;8.13;;
48018;SDS011;33786;48.690;9.562;2023-12-28T00:56:11;13.55;;;9.07;;
48018;SDS011;33786;48.690;9.562;2023-12-28T00:58:40;11.50;;;7.20;;
48018;SDS011;33786;48.690;9.562;2023-12-28T01:01:09;10.80;;;7.60;;
48018;SDS011;33786;48.690;9.562;2023-12-28T01:03:36;11.40;;;7.97;;
48018;SDS011;33786;48.690;9.562;2023-12-28T01:06:04;10.85;;;8.00;;
48018;SDS011;33786;48.690;9.562;2023-12-28T01:08:31;11.23;;;7.60;;
48018;SDS011;33786;48.690;9.562;2023-12-28T01:11:00;14.65;;;8.68;;
48018;SDS011;33786;48.690;9.562;2023-12-28T01:13:28;11.70;;;8.80;;
48018;SDS011;33786;48.690;9.562;2023-12-28T01:15:56;10.40;;;7.80;;
48018;SDS011;33786;48.690;9.562;2023-12-28T01:18:23;11.40;;;7.50;;
48018;SDS011;33786;48.690;9.562;2023-12-28T01:20:51;8.95;;;6.45;;
48018;SDS011;33786;48.690;9.562;2023-12-28T01:23:17;11.77;;;7.53;;
48018;SDS011;33786;48.690;9.562;2023-12-28T01:25:45;10.23;;;7.18;;
48018;SDS011;33786;48.690;9.562;2023-12-28T01:28:11;10.45;;;7.45;;
48018;SDS011;33786;48.690;9.562;2023-12-28T01:30:38;11.30;;;7.15;;
48018;SDS011;33786;48.690;9.562;2023-12-28T01:33:05;9.13;;;6.88;;
48018;SDS011;33786;48.690;9.562;2023-12-28T01:35:32;11.30;;;6.88;;
48018;SDS011;33786;48.690;9.562;2023-12-28T01:37:59;10.15;;;7.40;;
48018;SDS011;33786;48.690;9.562;2023-12-28T01:40:28;14.35;;;7.75;;
48018;SDS011;33786;48.690;9.562;2023-12-28T01:42:54;12.27;;;7.78;;
48018;SDS011;33786;48.690;9.562;2023-12-28T01:45:21;11.82;;;8.13;;
48018;SDS011;33786;48.690;9.562;2023-12-28T01:47:48;12.88;;;7.85;;
48018;SDS011;33786;48.690;9.562;2023-12-28T01:50:17;9.50;;;7.10;;
48018;SDS011;33786;48.690;9.562;2023-12-28T01:52:45;8.88;;;7.35;;
48018;SDS011;33786;48.690;9.562;2023-12-28T01:55:12;11.82;;;7.57;;
48018;SDS011;33786;48.690;9.562;2023-12-28T01:57:40;12.85;;;7.65;;
48018;SDS011;33786;48.690;9.562;2023-12-28T02:00:07;12.50;;;8.45;;
48018;SDS011;33786;48.690;9.562;2023-12-28T02:02:35;10.55;;;7.68;;
48018;SDS011;33786;48.690;9.562;2023-12-28T02:05:02;10.05;;;8.50;;
48018;SDS011;33786;48.690;9.562;2023-12-28T02:07:29;8.57;;;6.55;;
48018;SDS011;33786;48.690;9.562;2023-12-28T02:09:58;11.95;;;7.85;;
48018;SDS011;33786;48.690;9.562;2023-12-28T02:12:25;11.93;;;7.15;;
48018;SDS011;33786;48.690;9.562;2023-12-28T02:14:52;11.02;;;7.50;;
48018;SDS011;33786;48.690;9.562;2023-12-28T02:19:52;10.02;;;7.13;;
48018;SDS011;33786;48.690;9.562;2023-12-28T02:22:21;12.43;;;7.20;;
48018;SDS011;33786;48.690;9.562;2023-12-28T02:25:11;11.18;;;7.70;;
48018;SDS011;33786;48.690;9.562;2023-12-28T02:27:39;12.73;;;7.65;;
48018;SDS011;33786;48.690;9.562;2023-12-28T02:30:07;10.05;;;7.10;;
48018;SDS011;33786;48.690;9.562;2023-12-28T02:32:39;11.02;;;7.03;;
48018;SDS011;33786;48.690;9.562;2023-12-28T02:35:26;11.70;;;7.47;;
48018;SDS011;33786;48.690;9.562;2023-12-28T02:38:09;13.38;;;7.10;;
48018;SDS011;33786;48.690;9.562;2023-12-28T02:40:38;12.68;;;7.55;;
48018;SDS011;33786;48.690;9.562;2023-12-28T02:43:06;12.25;;;7.18;;
48018;SDS011;33786;48.690;9.562;2023-12-28T02:45:34;14.85;;;9.35;;
48018;SDS011;33786;48.690;9.562;2023-12-28T02:48:02;11.65;;;8.35;;
48018;SDS011;33786;48.690;9.562;2023-12-28T02:50:30;8.52;;;6.70;;
48018;SDS011;33786;48.690;9.562;2023-12-28T02:52:57;10.63;;;6.88;;
48018;SDS011;33786;48.690;9.562;2023-12-28T02:55:24;11.95;;;7.45;;
48018;SDS011;33786;48.690;9.562;2023-12-28T02:57:53;10.07;;;7.47;;
48018;SDS011;33786;48.690;9.562;2023-12-28T03:00:22;16.83;;;8.63;;
48018;SDS011;33786;48.690;9.562;2023-12-28T03:02:49;13.48;;;7.78;;
48018;SDS011;33786;48.690;9.562;2023-12-28T03:05:16;11.18;;;7.88;;
48018;SDS011;33786;48.690;9.562;2023-12-28T03:07:43;9.73;;;6.93;;
48018;SDS011;33786;48.690;9.562;2023-12-28T03:10:10;10.40;;;7.13;;
48018;SDS011;33786;48.690;9.562;2023-12-28T03:12:40;11.70;;;7.35;;
48018;SDS011;33786;48.690;9.562;2023-12-28T03:15:07;12.02;;;7.50;;
48018;SDS011;33786;48.690;9.562;2023-12-28T03:17:34;12.07;;;7.60;;
48018;SDS011;33786;48.690;9.562;2023-12-28T03:20:03;13.98;;;7.75;;
48018;SDS011;33786;48.690;9.562;2023-12-28T03:22:31;10.57;;;6.55;;
48018;SDS011;33786;48.690;9.562;2023-12-28T03:24:58;10.70;;;7.28;;
48018;SDS011;33786;48.690;9.562;2023-12-28T03:27:25;10.93;;;7.70;;
48018;SDS011;33786;48.690;9.562;2023-12-28T03:29:52;10.05;;;7.00;;
48018;SDS011;33786;48.690;9.562;2023-12-28T03:32:19;10.15;;;7.47;;
48018;SDS011;33786;48.690;9.562;2023-12-28T03:34:46;10.93;;;7.65;;
48018;SDS011;33786;48.690;9.562;2023-12-28T03:37:13;12.57;;;7.78;;
48018;SDS011;33786;48.690;9.562;2023-12-28T03:39:39;10.90;;;7.15;;
48018;SDS011;33786;48.690;9.562;2023-12-28T03:42:06;8.68;;;6.38;;
48018;SDS011;33786;48.690;9.562;2023-12-28T03:44:33;8.85;;;6.25;;
48018;SDS011;33786;48.690;9.562;2023-12-28T03:47:00;10.65;;;6.57;;
48018;SDS011;33786;48.690;9.562;2023-12-28T03:49:27;12.73;;;7.68;;
48018;SDS011;33786;48.690;9.562;2023-12-28T03:51:54;11.52;;;7.47;;
48018;SDS011;33786;48.690;9.562;2023-12-28T03:54:21;12.02;;;7.65;;
48018;SDS011;33786;48.690;9.562;2023-12-28T03:56:47;11.55;;;7.72;;
48018;SDS011;33786;48.690;9.562;2023-12-28T03:59:14;10.23;;;6.75;;
48018;SDS011;33786;48.690;9.562;2023-12-28T04:01:41;12.57;;;8.23;;
48018;SDS011;33786;48.690;9.562;2023-12-28T04:04:08;12.00;;;7.10;;
48018;SDS011;33786;48.690;9.562;2023-12-28T04:06:36;11.90;;;7.00;;
48018;SDS011;33786;48.690;9.562;2023-12-28T04:09:04;11.75;;;7.18;;
48018;SDS011;33786;48.690;9.562;2023-12-28T04:11:31;10.27;;;6.80;;
48018;SDS011;33786;48.690;9.562;2023-12-28T04:13:58;11.02;;;6.93;;
48018;SDS011;33786;48.690;9.562;2023-12-28T04:16:25;10.43;;;7.18;;
48018;SDS011;33786;48.690;9.562;2023-12-28T04:18:52;10.00;;;6.13;;
48018;SDS011;33786;48.690;9.562;2023-12-28T04:21:19;9.02;;;6.57;;
48018;SDS011;33786;48.690;9.562;2023-12-28T04:23:46;9.75;;;6.80;;
48018;SDS011;33786;48.690;9.562;2023-12-28T04:26:12;10.60;;;6.53;;
48018;SDS011;33786;48.690;9.562;2023-12-28T04:28:39;11.88;;;6.97;;
48018;SDS011;33786;48.690;9.562;2023-12-28T04:31:06;10.13;;;6.75;;
48018;SDS011;33786;48.690;9.562;2023-12-28T04:33:34;9.73;;;6.03;;
48018;SDS011;33786;48.690;9.562;2023-12-28T04:36:01;13.60;;;6.90;;
48018;SDS011;33786;48.690;9.562;2023-12-28T04:38:32;8.63;;;6.57;;
48018;SDS011;33786;48.690;9.562;2023-12-28T04:40:59;9.80;;;5.97;;
48018;SDS011;33786;48.690;9.562;2023-12-28T04:43:27;10.13;;;6.35;;
48018;SDS011;33786;48.690;9.562;2023-12-28T04:45:54;8.10;;;5.72;;
48018;SDS011;33786;48.690;9.562;2023-12-28T04:48:21;10.18;;;7.15;;
48018;SDS011;33786;48.690;9.562;2023-12-28T04:50:50;11.30;;;7.20;;
48018;SDS011;33786;48.690;9.562;2023-12-28T04:53:19;10.45;;;6.70;;
48018;SDS011;33786;48.690;9.562;2023-12-28T04:55:45;11.30;;;7.63;;
48018;SDS011;33786;48.690;9.562;2023-12-28T04:58:12;9.00;;;5.90;;
48018;SDS011;33786;48.690;9.562;2023-12-28T05:00:39;10.30;;;7.05;;
48018;SDS011;33786;48.690;9.562;2023-12-28T05:03:06;8.82;;;6.45;;
48018;SDS011;33786;48.690;9.562;2023-12-28T05:05:33;8.80;;;6.43;;
48018;SDS011;33786;48.690;9.562;2023-12-28T05:08:00;9.52;;;6.10;;
48018;SDS011;33786;48.690;9.562;2023-12-28T05:10:27;11.63;;;7.10;;
48018;SDS011;33786;48.690;9.562;2023-12-28T05:12:54;9.63;;;6.40;;
48018;SDS011;33786;48.690;9.562;2023-12-28T05:15:27;11.90;;;7.40;;
48018;SDS011;33786;48.690;9.562;2023-12-28T05:17:55;11.82;;;7.57;;
48018;SDS011;33786;48.690;9.562;2023-12-28T05:20:23;13.43;;;7.85;;
48018;SDS011;33786;48.690;9.562;2023-12-28T05:22:49;10.68;;;7.25;;
48018;SDS011;33786;48.690;9.562;2023-12-28T05:25:16;12.35;;;8.40;;
48018;SDS011;33786;48.690;9.562;2023-12-28T05:27:43;13.52;;;7.10;;
48018;SDS011;33786;48.690;9.562;2023-12-28T05:30:10;11.20;;;6.70;;
48018;SDS011;33786;48.690;9.562;2023-12-28T05:32:38;10.43;;;6.55;;
48018;SDS011;33786;48.690;9.562;2023-12-28T05:35:06;10.85;;;6.80;;
48018;SDS011;33786;48.690;9.562;2023-12-28T05:37:33;8.90;;;6.82;;
48018;SDS011;33786;48.690;9.562;2023-12-28T05:40:00;13.07;;;7.43;;
48018;SDS011;33786;48.690;9.562;2023-12-28T05:42:27;11.85;;;6.70;;
48018;SDS011;33786;48.690;9.562;2023-12-28T05:44:54;10.90;;;6.93;;
48018;SDS011;33786;48.690;9.562;2023-12-28T05:47:21;9.25;;;6.22;;
48018;SDS011;33786;48.690;9.562;2023-12-28T05:49:48;8.55;;;6.75;;
48018;SDS011;33786;48.690;9.562;2023-12-28T05:52:15;11.82;;;6.47;;
48018;SDS011;33786;48.690;9.562;2023-12-28T05:54:45;8.75;;;5.85;;
48018;SDS011;33786;48.690;9.562;2023-12-28T05:57:12;9.02;;;5.88;;
48018;SDS011;33786;48.690;9.562;2023-12-28T05:59:39;9.73;;;6.32;;
48018;SDS011;33786;48.690;9.562;2023-12-28T06:02:06;10.07;;;6.80;;
48018;SDS011;33786;48.690;9.562;2023-12-28T06:04:33;8.60;;;5.70;;
48018;SDS011;33786;48.690;9.562;2023-12-28T06:07:04;10.82;;;6.60;;
48018;SDS011;33786;48.690;9.562;2023-12-28T06:09:31;9.82;;;5.68;;
48018;SDS011;33786;48.690;9.562;2023-12-28T06:11:58;9.63;;;6.43;;
48018;SDS011;33786;48.690;9.562;2023-12-28T06:14:25;8.90;;;5.63;;
48018;SDS011;33786;48.690;9.562;2023-12-28T06:16:52;9.80;;;5.78;;
48018;SDS011;33786;48.690;9.562;2023-12-28T06:19:19;8.48;;;5.75;;
48018;SDS011;33786;48.690;9.562;2023-12-28T06:21:46;10.23;;;5.88;;
48018;SDS011;33786;48.690;9.562;2023-12-28T06:24:13;8.45;;;5.80;;
48018;SDS011;33786;48.690;9.562;2023-12-28T06:26:40;9.73;;;5.95;;
48018;SDS011;33786;48.690;9.562;2023-12-28T06:29:08;8.15;;;5.45;;
48018;SDS011;33786;48.690;9.562;2023-12-28T06:31:36;8.55;;;5.80;;
48018;SDS011;33786;48.690;9.562;2023-12-28T06:34:04;8.57;;;5.85;;
48018;SDS011;33786;48.690;9.562;2023-12-28T06:36:32;8.93;;;5.60;;
48018;SDS011;33786;48.690;9.562;2023-12-28T06:39:00;8.38;;;5.40;;
48018;SDS011;33786;48.690;9.562;2023-12-28T06:41:27;12.27;;;5.60;;
48018;SDS011;33786;48.690;9.562;2023-12-28T06:43:54;10.38;;;6.72;;
48018;SDS011;33786;48.690;9.562;2023-12-28T06:46:20;8.70;;;5.90;;
48018;SDS011;33786;48.690;9.562;2023-12-28T06:48:47;11.65;;;5.75;;
48018;SDS011;33786;48.690;9.562;2023-12-28T06:51:18;7.45;;;5.70;;
48018;SDS011;33786;48.690;9.562;2023-12-28T06:53:47;10.85;;;6.30;;
48018;SDS011;33786;48.690;9.562;2023-12-28T06:56:15;12.68;;;6.40;;
48018;SDS011;33786;48.690;9.562;2023-12-28T06:58:42;9.38;;;6.15;;
48018;SDS011;33786;48.690;9.562;2023-12-28T07:01:09;8.48;;;6.18;;
48018;SDS011;33786;48.690;9.562;2023-12-28T07:03:37;9.93;;;6.10;;
48018;SDS011;33786;48.690;9.562;2023-12-28T07:06:04;8.27;;;5.28;;
48018;SDS011;33786;48.690;9.562;2023-12-28T07:08:31;8.38;;;5.80;;
48018;SDS011;33786;48.690;9.562;2023-12-28T07:11:02;9.25;;;5.30;;
48018;SDS011;33786;48.690;9.562;2023-12-28T07:13:29;9.85;;;5.57;;
48018;SDS011;33786;48.690;9.562;2023-12-28T07:15:56;9.35;;;6.32;;
48018;SDS011;33786;48.690;9.562;2023-12-28T07:18:26;7.68;;;4.97;;
48018;SDS011;33786;48.690;9.562;2023-12-28T07:20:53;9.48;;;5.47;;
48018;SDS011;33786;48.690;9.562;2023-12-28T07:23:20;9.15;;;6.00;;
48018;SDS011;33786;48.690;9.562;2023-12-28T07:25:47;9.23;;;5.18;;
48018;SDS011;33786;48.690;9.562;2023-12-28T07:28:14;10.73;;;5.07;;
48018;SDS011;33786;48.690;9.562;2023-12-28T07:30:41;9.43;;;4.90;;
48018;SDS011;33786;48.690;9.562;2023-12-28T07:33:08;7.60;;;4.97;;
48018;SDS011;33786;48.690;9.562;2023-12-28T07:35:35;9.82;;;6.57;;
48018;SDS011;33786;48.690;9.562;2023-12-28T07:38:02;8.18;;;5.63;;
48018;SDS011;33786;48.690;9.562;2023-12-28T07:40:29;7.88;;;5.75;;
48018;SDS011;33786;48.690;9.562;2023-12-28T07:42:56;12.68;;;6.07;;
48018;SDS011;33786;48.690;9.562;2023-12-28T07:45:23;9.18;;;5.70;;
48018;SDS011;33786;48.690;9.562;2023-12-28T07:47:51;8.35;;;5.82;;
48018;SDS011;33786;48.690;9.562;2023-12-28T07:50:19;8.45;;;5.60;;
48018;SDS011;33786;48.690;9.562;2023-12-28T07:52:46;7.93;;;5.65;;
48018;SDS011;33786;48.690;9.562;2023-12-28T07:55:13;11.15;;;6.10;;
48018;SDS011;33786;48.690;9.562;2023-12-28T07:57:41;9.02;;;6.13;;
48018;SDS011;33786;48.690;9.562;2023-12-28T08:00:08;8.40;;;5.78;;
48018;SDS011;33786;48.690;9.562;2023-12-28T08:02:35;9.27;;;6.40;;
48018;SDS011;33786;48.690;9.562;2023-12-28T08:05:03;12.13;;;6.10;;
48018;SDS011;33786;48.690;9.562;2023-12-28T08:07:30;9.38;;;5.65;;
48018;SDS011;33786;48.690;9.562;2023-12-28T08:09:57;9.73;;;6.40;;
48018;SDS011;33786;48.690;9.562;2023-12-28T08:12:24;10.60;;;6.95;;
48018;SDS011;33786;48.690;9.562;2023-12-28T08:14:54;10.88;;;7.20;;
48018;SDS011;33786;48.690;9.562;2023-12-28T08:17:21;10.65;;;7.00;;
48018;SDS011;33786;48.690;9.562;2023-12-28T08:19:48;10.40;;;7.20;;
48018;SDS011;33786;48.690;9.562;2023-12-28T08:22:15;11.40;;;7.65;;
48018;SDS011;33786;48.690;9.562;2023-12-28T08:24:42;14.45;;;8.70;;
48018;SDS011;33786;48.690;9.562;2023-12-28T08:27:09;13.70;;;9.23;;
48018;SDS011;33786;48.690;9.562;2023-12-28T08:29:36;13.82;;;9.35;;
48018;SDS011;33786;48.690;9.562;2023-12-28T08:32:03;24.67;;;17.92;;
48018;SDS011;33786;48.690;9.562;2023-12-28T08:34:30;15.15;;;10.57;;
48018;SDS011;33786;48.690;9.562;2023-12-28T08:36:57;12.98;;;8.70;;
48018;SDS011;33786;48.690;9.562;2023-12-28T08:39:24;12.90;;;9.13;;
48018;SDS011;33786;48.690;9.562;2023-12-28T08:41:51;13.02;;;8.50;;
48018;SDS011;33786;48.690;9.562;2023-12-28T08:44:18;13.35;;;8.98;;
48018;SDS011;33786;48.690;9.562;2023-12-28T08:46:44;11.13;;;8.25;;
48018;SDS011;33786;48.690;9.562;2023-12-28T08:49:12;12.30;;;8.18;;
48018;SDS011;33786;48.690;9.562;2023-12-28T08:51:39;14.85;;;10.48;;
48018;SDS011;33786;48.690;9.562;2023-12-28T08:54:10;13.68;;;9.90;;
48018;SDS011;33786;48.690;9.562;2023-12-28T08:56:37;12.43;;;7.93;;
48018;SDS011;33786;48.690;9.562;2023-12-28T08:59:04;11.57;;;7.63;;
48018;SDS011;33786;48.690;9.562;2023-12-28T09:01:31;10.23;;;7.13;;
48018;SDS011;33786;48.690;9.562;2023-12-28T09:03:58;12.13;;;7.63;;
48018;SDS011;33786;48.690;9.562;2023-12-28T09:06:26;14.27;;;8.95;;
48018;SDS011;33786;48.690;9.562;2023-12-28T09:08:53;11.32;;;6.53;;
48018;SDS011;33786;48.690;9.562;2023-12-28T09:11:21;11.80;;;7.47;;
48018;SDS011;33786;48.690;9.562;2023-12-28T09:13:48;8.77;;;6.68;;
48018;SDS011;33786;48.690;9.562;2023-12-28T09:16:15;8.38;;;5.70;;
48018;SDS011;33786;48.690;9.562;2023-12-28T09:18:42;9.95;;;6.22;;
48018;SDS011;33786;48.690;9.562;2023-12-28T09:21:09;9.85;;;5.95;;
48018;SDS011;33786;48.690;9.562;2023-12-28T09:23:37;9.10;;;5.60;;
48018;SDS011;33786;48.690;9.562;2023-12-28T09:26:05;10.00;;;5.40;;
48018;SDS011;33786;48.690;9.562;2023-12-28T09:28:33;9.00;;;6.38;;
48018;SDS011;33786;48.690;9.562;2023-12-28T09:31:00;8.75;;;6.40;;
48018;SDS011;33786;48.690;9.562;2023-12-28T09:33:29;7.45;;;5.40;;
48018;SDS011;33786;48.690;9.562;2023-12-28T09:35:56;12.60;;;6.15;;
48018;SDS011;33786;48.690;9.562;2023-12-28T09:38:23;9.25;;;5.30;;
48018;SDS011;33786;48.690;9.562;2023-12-28T09:40:53;7.85;;;5.47;;
48018;SDS011;33786;48.690;9.562;2023-12-28T09:45:51;10.90;;;5.55;;
48018;SDS011;33786;48.690;9.562;2023-12-28T09:48:20;8.20;;;5.47;;
48018;SDS011;33786;48.690;9.562;2023-12-28T09:50:51;8.13;;;5.55;;
48018;SDS011;33786;48.690;9.562;2023-12-28T09:53:24;8.75;;;5.90;;
48018;SDS011;33786;48.690;9.562;2023-12-28T09:55:52;10.63;;;5.53;;
48018;SDS011;33786;48.690;9.562;2023-12-28T09:58:19;8.52;;;5.65;;
48018;SDS011;33786;48.690;9.562;2023-12-28T10:00:49;9.82;;;5.70;;
48018;SDS011;33786;48.690;9.562;2023-12-28T10:03:17;8.50;;;5.82;;
48018;SDS011;33786;48.690;9.562;2023-12-28T10:05:45;9.35;;;6.10;;
48018;SDS011;33786;48.690;9.562;2023-12-28T10:08:13;9.60;;;6.13;;
48018;SDS011;33786;48.690;9.562;2023-12-28T10:10:41;13.70;;;9.45;;
48018;SDS011;33786;48.690;9.562;2023-12-28T10:13:08;16.20;;;12.80;;
48018;SDS011;33786;48.690;9.562;2023-12-28T10:15:37;19.65;;;14.20;;
48018;SDS011;33786;48.690;9.562;2023-12-28T10:18:04;21.13;;;14.52;;
48018;SDS011;33786;48.690;9.562;2023-12-28T10:20:31;18.65;;;14.25;;
48018;SDS011;33786;48.690;9.562;2023-12-28T10:22:59;19.27;;;13.27;;
48018;SDS011;33786;48.690;9.562;2023-12-28T10:25:28;19.48;;;13.10;;
48018;SDS011;33786;48.690;9.562;2023-12-28T10:27:56;15.95;;;13.20;;
48018;SDS011;33786;48.690;9.562;2023-12-28T10:30:23;16.20;;;12.80;;
48018;SDS011;33786;48.690;9.562;2023-12-28T10:32:50;14.15;;;10.75;;
48018;SDS011;33786;48.690;9.562;2023-12-28T10:35:18;12.40;;;10.43;;
48018;SDS011;33786;48.690;9.562;2023-12-28T10:37:46;14.32;;;10.55;;
48018;SDS011;33786;48.690;9.562;2023-12-28T10:40:15;14.35;;;10.77;;
48018;SDS011;33786;48.690;9.562;2023-12-28T10:45:24;19.17;;;14.63;;
48018;SDS011;33786;48.690;9.562;2023-12-28T10:50:38;21.00;;;14.80;;
48018;SDS011;33786;48.690;9.562;2023-12-28T11:01:17;11.85;;;9.20;;
48018;SDS011;33786;48.690;9.562;2023-12-28T11:03:54;13.35;;;9.27;;
48018;SDS011;33786;48.690;9.562;2023-12-28T11:06:35;11.73;;;8.75;;
48018;SDS011;33786;48.690;9.562;2023-12-28T11:09:04;12.32;;;10.10;;
48018;SDS011;33786;48.690;9.562;2023-12-28T11:11:36;15.40;;;10.52;;
48018;SDS011;33786;48.690;9.562;2023-12-28T11:14:04;12.77;;;10.02;;
48018;SDS011;33786;48.690;9.562;2023-12-28T11:16:31;18.33;;;10.15;;
48018;SDS011;33786;48.690;9.562;2023-12-28T11:18:59;18.98;;;11.25;;
48018;SDS011;33786;48.690;9.562;2023-12-28T11:21:26;17.10;;;10.50;;
48018;SDS011;33786;48.690;9.562;2023-12-28T11:23:54;18.92;;;13.05;;
48018;SDS011;33786;48.690;9.562;2023-12-28T11:26:22;38.95;;;24.23;;
48018;SDS011;33786;48.690;9.562;2023-12-28T11:28:49;71.38;;;40.38;;
48018;SDS011;33786;48.690;9.562;2023-12-28T11:31:16;45.03;;;28.92;;
48018;SDS011;33786;48.690;9.562;2023-12-28T11:33:47;27.98;;;19.27;;
48018;SDS011;33786;48.690;9.562;2023-12-28T11:36:51;20.23;;;14.52;;
48018;SDS011;33786;48.690;9.562;2023-12-28T11:39:19;20.40;;;14.10;;
48018;SDS011;33786;48.690;9.562;2023-12-28T11:41:58;13.65;;;11.23;;
48018;SDS011;33786;48.690;9.562;2023-12-28T11:44:27;16.75;;;11.30;;
48018;SDS011;33786;48.690;9.562;2023-12-28T11:46:54;13.57;;;9.80;;
48018;SDS011;33786;48.690;9.562;2023-12-28T11:49:24;10.48;;;7.05;;
48018;SDS011;33786;48.690;9.562;2023-12-28T11:51:57;11.02;;;7.88;;
48018;SDS011;33786;48.690;9.562;2023-12-28T11:54:26;9.30;;;7.72;;
48018;SDS011;33786;48.690;9.562;2023-12-28T11:56:53;11.55;;;8.65;;
48018;SDS011;33786;48.690;9.562;2023-12-28T11:59:20;13.18;;;8.40;;
48018;SDS011;33786;48.690;9.562;2023-12-28T12:01:50;11.00;;;7.28;;
48018;SDS011;33786;48.690;9.562;2023-12-28T12:04:18;12.23;;;7.85;;
48018;SDS011;33786;48.690;9.562;2023-12-28T12:06:45;12.25;;;8.18;;
48018;SDS011;33786;48.690;9.562;2023-12-28T12:09:13;16.60;;;9.20;;
48018;SDS011;33786;48.690;9.562;2023-12-28T12:11:40;13.30;;;8.07;;
48018;SDS011;33786;48.690;9.562;2023-12-28T12:14:08;11.82;;;7.55;;
48018;SDS011;33786;48.690;9.562;2023-12-28T12:16:36;13.95;;;8.40;;
48018;SDS011;33786;48.690;9.562;2023-12-28T12:19:04;10.52;;;7.72;;
48018;SDS011;33786;48.690;9.562;2023-12-28T12:21:35;8.77;;;6.63;;
48018;SDS011;33786;48.690;9.562;2023-12-28T12:24:02;8.90;;;5.18;;
48018;SDS011;33786;48.690;9.562;2023-12-28T12:26:29;10.70;;;7.25;;
48018;SDS011;33786;48.690;9.562;2023-12-28T12:29:02;10.55;;;6.38;;
48018;SDS011;33786;48.690;9.562;2023-12-28T12:31:29;9.98;;;5.80;;
48018;SDS011;33786;48.690;9.562;2023-12-28T12:33:57;9.77;;;6.07;;
48018;SDS011;33786;48.690;9.562;2023-12-28T12:36:24;8.65;;;5.68;;
48018;SDS011;33786;48.690;9.562;2023-12-28T12:38:50;9.02;;;6.32;;
48018;SDS011;33786;48.690;9.562;2023-12-28T12:41:17;19.45;;;11.93;;
48018;SDS011;33786;48.690;9.562;2023-12-28T12:43:46;13.95;;;11.07;;
48018;SDS011;33786;48.690;9.562;2023-12-28T12:46:12;14.30;;;10.82;;
48018;SDS011;33786;48.690;9.562;2023-12-28T12:48:40;16.65;;;13.05;;
48018;SDS011;33786;48.690;9.562;2023-12-28T12:51:07;21.50;;;14.95;;
48018;SDS011;33786;48.690;9.562;2023-12-28T12:53:34;21.48;;;13.50;;
48018;SDS011;33786;48.690;9.562;2023-12-28T12:56:03;17.25;;;11.45;;
48018;SDS011;33786;48.690;9.562;2023-12-28T12:58:31;17.92;;;12.00;;
48018;SDS011;33786;48.690;9.562;2023-12-28T13:01:02;21.67;;;14.55;;
48018;SDS011;33786;48.690;9.562;2023-12-28T13:03:30;24.02;;;15.85;;
48018;SDS011;33786;48.690;9.562;2023-12-28T13:05:57;42.47;;;28.63;;
48018;SDS011;33786;48.690;9.562;2023-12-28T13:08:24;39.13;;;25.80;;
48018;SDS011;33786;48.690;9.562;2023-12-28T13:10:51;29.50;;;19.95;;
48018;SDS011;33786;48.690;9.562;2023-12-28T13:13:18;32.70;;;24.20;;
48018;SDS011;33786;48.690;9.562;2023-12-28T13:15:45;37.28;;;27.45;;
48018;SDS011;33786;48.690;9.562;2023-12-28T13:18:12;30.92;;;24.75;;
48018;SDS011;33786;48.690;9.562;2023-12-28T13:20:39;41.85;;;31.80;;
48018;SDS011;33786;48.690;9.562;2023-12-28T13:23:06;34.22;;;26.98;;
48018;SDS011;33786;48.690;9.562;2023-12-28T13:25:33;30.17;;;21.20;;
48018;SDS011;33786;48.690;9.562;2023-12-28T13:28:00;23.95;;;17.23;;
48018;SDS011;33786;48.690;9.562;2023-12-28T13:30:27;21.23;;;15.27;;
48018;SDS011;33786;48.690;9.562;2023-12-28T13:32:57;21.30;;;15.45;;
48018;SDS011;33786;48.690;9.562;2023-12-28T13:35:24;22.55;;;15.25;;
48018;SDS011;33786;48.690;9.562;2023-12-28T13:37:51;19.00;;;15.02;;
48018;SDS011;33786;48.690;9.562;2023-12-28T13:40:18;16.70;;;13.82;;
48018;SDS011;33786;48.690;9.562;2023-12-28T13:42:46;16.73;;;14.15;;
48018;SDS011;33786;48.690;9.562;2023-12-28T13:45:13;24.35;;;16.92;;
48018;SDS011;33786;48.690;9.562;2023-12-28T13:47:40;23.15;;;16.73;;
48018;SDS011;33786;48.690;9.562;2023-12-28T13:50:07;23.65;;;16.75;;
48018;SDS011;33786;48.690;9.562;2023-12-28T13:52:34;25.63;;;18.80;;
48018;SDS011;33786;48.690;9.562;2023-12-28T13:55:01;23.40;;;17.05;;
48018;SDS011;33786;48.690;9.562;2023-12-28T13:57:28;24.58;;;17.63;;
48018;SDS011;33786;48.690;9.562;2023-12-28T13:59:55;21.88;;;17.58;;
48018;SDS011;33786;48.690;9.562;2023-12-28T14:02:26;22.90;;;18.00;;
48018;SDS011;33786;48.690;9.562;2023-12-28T14:04:53;24.65;;;17.90;;
48018;SDS011;33786;48.690;9.562;2023-12-28T14:07:22;23.73;;;16.92;;
48018;SDS011;33786;48.690;9.562;2023-12-28T14:09:51;21.88;;;16.20;;
48018;SDS011;33786;48.690;9.562;2023-12-28T14:12:18;21.10;;;16.60;;
48018;SDS011;33786;48.690;9.562;2023-12-28T14:14:45;24.77;;;16.77;;
48018;SDS011;33786;48.690;9.562;2023-12-28T14:17:12;22.63;;;17.77;;
48018;SDS011;33786;48.690;9.562;2023-12-28T14:19:38;21.90;;;17.00;;
48018;SDS011;33786;48.690;9.562;2023-12-28T14:22:08;20.58;;;16.67;;
48018;SDS011;33786;48.690;9.562;2023-12-28T14:24:35;21.50;;;17.10;;
48018;SDS011;33786;48.690;9.562;2023-12-28T14:27:02;22.52;;;17.27;;
48018;SDS011;33786;48.690;9.562;2023-12-28T14:29:30;24.10;;;18.38;;
48018;SDS011;33786;48.690;9.562;2023-12-28T14:31:57;23.95;;;17.02;;
48018;SDS011;33786;48.690;9.562;2023-12-28T14:34:25;22.48;;;17.00;;
48018;SDS011;33786;48.690;9.562;2023-12-28T14:36:53;22.50;;;17.17;;
48018;SDS011;33786;48.690;9.562;2023-12-28T14:39:20;23.38;;;18.95;;
48018;SDS011;33786;48.690;9.562;2023-12-28T14:41:47;25.58;;;18.33;;
48018;SDS011;33786;48.690;9.562;2023-12-28T14:44:14;27.60;;;19.17;;
48018;SDS011;33786;48.690;9.562;2023-12-28T14:46:41;27.88;;;19.90;;
48018;SDS011;33786;48.690;9.562;2023-12-28T14:49:08;29.20;;;19.83;;
48018;SDS011;33786;48.690;9.562;2023-12-28T14:51:35;28.73;;;21.42;;
48018;SDS011;33786;48.690;9.562;2023-12-28T14:54:02;28.02;;;21.13;;
48018;SDS011;33786;48.690;9.562;2023-12-28T14:56:29;30.10;;;22.30;;
48018;SDS011;33786;48.690;9.562;2023-12-28T14:59:10;35.10;;;25.60;;